createdAt,value
2018-06-30T00:02:13.839Z,14.77
2018-06-30T00:04:47.358Z,14.82
2018-06-30T00:07:15.359Z,14.75
2018-06-30T00:09:43.473Z,14.72
2018-06-30T00:12:11.586Z,14.69
2018-06-30T00:14:39.667Z,14.70
2018-06-30T00:17:07.801Z,14.68
2018-06-30T00:19:35.815Z,14.70
2018-06-30T00:22:04.066Z,14.71
2018-06-30T00:24:32.160Z,14.68
2018-06-30T00:27:31.378Z,14.70
2018-06-30T00:30:00.317Z,14.69
2018-06-30T00:32:28.644Z,14.69
2018-06-30T00:34:56.676Z,14.83
2018-06-30T00:37:24.719Z,14.78
2018-06-30T00:39:52.821Z,14.74
2018-06-30T00:42:20.830Z,14.72
2018-06-30T00:44:48.916Z,14.80
2018-06-30T00:47:16.976Z,14.89
2018-06-30T00:49:45.007Z,14.81
2018-06-30T00:52:13.051Z,14.74
2018-06-30T00:54:41.082Z,14.79
2018-06-30T00:57:10.014Z,14.75
2018-06-30T00:59:38.037Z,14.74
2018-06-30T01:02:06.441Z,14.73
2018-06-30T01:04:35.539Z,14.74
2018-06-30T01:07:03.563Z,14.73
2018-06-30T01:09:31.543Z,14.71
2018-06-30T01:11:59.563Z,14.75
2018-06-30T01:14:27.812Z,14.75
2018-06-30T01:16:55.825Z,14.80
2018-06-30T01:19:23.808Z,14.69
2018-06-30T01:21:51.945Z,14.70
2018-06-30T01:24:20.040Z,14.68
2018-06-30T01:26:48.052Z,14.63
2018-06-30T01:29:16.103Z,14.62
2018-06-30T01:31:44.119Z,14.72
2018-06-30T01:34:12.165Z,14.79
2018-06-30T01:36:40.207Z,14.72
2018-06-30T01:39:09.975Z,14.62
2018-06-30T01:41:38.065Z,14.60
2018-06-30T01:44:06.120Z,14.60
2018-06-30T01:46:34.155Z,14.59
2018-06-30T01:49:02.211Z,14.71
2018-06-30T01:51:30.257Z,14.70
2018-06-30T01:53:58.303Z,14.64
2018-06-30T01:56:26.430Z,14.61
2018-06-30T01:58:54.482Z,14.61
2018-06-30T02:01:22.502Z,14.59
2018-06-30T02:03:50.560Z,14.61
2018-06-30T02:06:18.664Z,14.64
2018-06-30T02:08:46.610Z,14.61
2018-06-30T02:11:14.634Z,14.63
2018-06-30T02:13:42.735Z,14.59
2018-06-30T02:16:10.803Z,14.61
2018-06-30T02:18:38.828Z,14.60
2018-06-30T02:21:06.954Z,14.60
2018-06-30T02:23:35.043Z,14.62
2018-06-30T02:26:03.093Z,14.58
2018-06-30T02:28:31.236Z,14.60
2018-06-30T02:30:59.340Z,14.60
2018-06-30T02:33:27.406Z,14.70
2018-06-30T02:35:55.488Z,14.65
2018-06-30T02:38:23.548Z,14.64
2018-06-30T02:40:51.519Z,14.63
2018-06-30T02:43:19.742Z,14.64
2018-06-30T02:45:47.766Z,14.63
2018-06-30T02:48:15.867Z,14.62
2018-06-30T02:50:43.908Z,14.60
2018-06-30T02:53:12.029Z,14.57
2018-06-30T02:55:40.102Z,14.60
2018-06-30T02:58:08.239Z,14.62
2018-06-30T03:00:36.294Z,14.62
2018-06-30T03:03:04.624Z,14.60
2018-06-30T03:05:32.685Z,14.66
2018-06-30T03:08:00.808Z,14.63
2018-06-30T03:10:28.903Z,14.67
2018-06-30T03:12:57.044Z,14.67
2018-06-30T03:15:25.065Z,14.69
2018-06-30T03:17:53.084Z,14.68
2018-06-30T03:20:21.160Z,14.68
2018-06-30T03:22:49.234Z,14.74
2018-06-30T03:25:17.309Z,14.88
2018-06-30T03:27:45.502Z,14.88
2018-06-30T03:30:13.585Z,14.86
2018-06-30T03:32:41.704Z,14.87
2018-06-30T03:35:09.876Z,14.89
2018-06-30T03:37:37.912Z,14.90
2018-06-30T03:40:05.934Z,14.93
2018-06-30T03:42:34.122Z,14.96
2018-06-30T03:45:02.210Z,15.00
2018-06-30T03:47:30.503Z,15.03
2018-06-30T03:49:58.777Z,15.02
2018-06-30T03:52:26.922Z,15.09
2018-06-30T03:54:55.201Z,15.18
2018-06-30T03:57:23.566Z,15.29
2018-06-30T03:59:51.935Z,15.39
2018-06-30T04:02:19.938Z,15.51
2018-06-30T04:04:47.988Z,15.62
2018-06-30T04:07:16.025Z,15.74
2018-06-30T04:09:44.161Z,15.76
2018-06-30T04:12:12.381Z,15.72
2018-06-30T04:14:40.426Z,15.66
2018-06-30T04:17:08.497Z,15.70
2018-06-30T04:19:36.804Z,15.73
2018-06-30T04:22:04.906Z,15.51
2018-06-30T04:24:33.027Z,15.42
2018-06-30T04:27:01.180Z,15.40
2018-06-30T04:29:29.315Z,15.42
2018-06-30T04:31:57.445Z,15.49
2018-06-30T04:34:25.603Z,15.46
2018-06-30T04:36:53.731Z,15.41
2018-06-30T04:39:22.093Z,15.43
2018-06-30T04:41:50.419Z,15.40
2018-06-30T04:44:18.719Z,15.36
2018-06-30T04:46:47.064Z,15.42
2018-06-30T04:49:15.369Z,15.43
2018-06-30T04:51:43.539Z,15.54
2018-06-30T04:54:13.999Z,15.63
2018-06-30T04:56:42.410Z,15.76
2018-06-30T04:59:10.847Z,15.80
2018-06-30T05:01:39.001Z,15.76
2018-06-30T05:04:07.247Z,15.77
2018-06-30T05:06:35.568Z,15.83
2018-06-30T05:09:05.486Z,16.00
2018-06-30T05:11:33.649Z,16.06
2018-06-30T05:14:01.909Z,16.11
2018-06-30T05:16:30.159Z,16.14
2018-06-30T05:18:58.638Z,16.70
2018-06-30T05:21:26.854Z,17.25
2018-06-30T05:23:55.033Z,17.38
2018-06-30T05:26:23.140Z,17.20
2018-06-30T05:28:51.357Z,17.01
2018-06-30T05:31:19.540Z,16.92
2018-06-30T05:33:47.661Z,16.90
2018-06-30T05:36:15.811Z,16.67
2018-06-30T05:38:44.292Z,16.61
2018-06-30T05:41:12.486Z,16.75
2018-06-30T05:43:40.855Z,16.89
2018-06-30T05:46:09.219Z,16.90
2018-06-30T05:48:37.517Z,16.85
2018-06-30T05:51:06.013Z,17.05
2018-06-30T05:53:34.209Z,17.21
2018-06-30T05:56:02.403Z,17.28
2018-06-30T05:58:30.707Z,17.24
2018-06-30T06:00:58.987Z,17.01
2018-06-30T06:03:27.291Z,17.08
2018-06-30T06:05:55.542Z,17.03
2018-06-30T06:08:23.714Z,17.28
2018-06-30T06:10:52.127Z,17.35
2018-06-30T06:13:20.422Z,17.55
2018-06-30T06:15:48.587Z,18.06
2018-06-30T06:18:16.930Z,18.56
2018-06-30T06:20:45.147Z,18.67
2018-06-30T06:23:13.320Z,18.90
2018-06-30T06:25:41.505Z,18.86
2018-06-30T06:28:09.800Z,18.68
2018-06-30T06:30:37.966Z,18.69
2018-06-30T06:33:06.268Z,18.55
2018-06-30T06:35:34.385Z,18.68
2018-06-30T06:38:02.749Z,18.59
2018-06-30T06:40:31.069Z,18.26
2018-06-30T06:42:59.649Z,18.21
2018-06-30T06:45:27.953Z,18.05
2018-06-30T06:47:56.381Z,17.90
2018-06-30T06:50:24.595Z,17.81
2018-06-30T06:52:52.980Z,17.68
2018-06-30T06:55:21.631Z,17.66
2018-06-30T06:57:50.280Z,17.69
2018-06-30T07:00:18.980Z,17.64
2018-06-30T07:02:47.349Z,17.57
2018-06-30T07:05:15.905Z,17.61
2018-06-30T07:07:44.641Z,17.60
2018-06-30T07:10:13.311Z,17.61
2018-06-30T07:12:41.795Z,17.52
2018-06-30T07:15:10.302Z,17.43
2018-06-30T07:17:38.576Z,17.37
2018-06-30T07:20:07.037Z,17.37
2018-06-30T07:22:35.287Z,17.33
2018-06-30T07:25:03.613Z,17.29
2018-06-30T07:27:31.769Z,17.36
2018-06-30T07:30:00.017Z,17.31
2018-06-30T07:32:28.084Z,17.35
2018-06-30T07:34:56.451Z,17.53
2018-06-30T07:37:24.910Z,17.52
2018-06-30T07:39:53.197Z,17.64
2018-06-30T07:42:21.444Z,17.59
2018-06-30T07:44:49.635Z,17.70
2018-06-30T07:47:17.760Z,17.75
2018-06-30T07:49:46.227Z,17.99
2018-06-30T07:52:14.722Z,18.03
2018-06-30T07:54:43.048Z,18.07
2018-06-30T07:57:11.428Z,18.08
2018-06-30T07:59:39.939Z,18.14
2018-06-30T08:02:09.681Z,18.10
2018-06-30T08:04:38.179Z,18.01
2018-06-30T08:07:06.746Z,17.97
2018-06-30T08:09:35.412Z,18.00
2018-06-30T08:12:03.905Z,17.98
2018-06-30T08:14:32.468Z,18.07
2018-06-30T08:17:00.682Z,18.13
2018-06-30T08:19:29.115Z,18.19
2018-06-30T08:21:57.556Z,18.13
2018-06-30T08:24:25.907Z,17.97
2018-06-30T08:26:54.444Z,17.97
2018-06-30T08:29:23.133Z,17.80
2018-06-30T08:31:51.518Z,17.92
2018-06-30T08:34:19.848Z,18.02
2018-06-30T08:36:48.134Z,18.12
2018-06-30T08:39:16.676Z,18.28
2018-06-30T08:41:45.701Z,18.51
2018-06-30T08:44:14.210Z,18.66
2018-06-30T08:46:42.605Z,18.61
2018-06-30T08:49:11.189Z,18.72
2018-06-30T08:51:39.938Z,18.89
2018-06-30T08:54:08.410Z,18.85
2018-06-30T08:56:36.939Z,18.86
2018-06-30T08:59:05.522Z,18.86
2018-06-30T09:01:33.889Z,18.71
2018-06-30T09:04:02.147Z,18.66
2018-06-30T09:06:30.499Z,18.66
2018-06-30T09:08:58.952Z,18.75
2018-06-30T09:11:27.272Z,19.07
2018-06-30T09:13:55.680Z,19.36
2018-06-30T09:16:23.920Z,19.46
2018-06-30T09:18:52.140Z,19.56
2018-06-30T09:21:20.523Z,19.50
2018-06-30T09:23:48.650Z,19.77
2018-06-30T09:26:16.846Z,20.26
2018-06-30T09:28:44.973Z,20.28
2018-06-30T09:31:13.264Z,20.65
2018-06-30T09:33:41.418Z,20.88
2018-06-30T09:36:09.703Z,21.04
2018-06-30T09:38:37.790Z,21.00
2018-06-30T09:41:06.120Z,20.85
2018-06-30T09:43:34.543Z,20.96
2018-06-30T09:46:02.932Z,21.26
2018-06-30T09:48:31.443Z,21.26
2018-06-30T09:51:00.220Z,21.18
2018-06-30T09:53:28.802Z,20.75
2018-06-30T09:55:57.539Z,20.68
2018-06-30T09:58:26.058Z,20.66
2018-06-30T10:01:01.194Z,20.70
2018-06-30T10:03:29.795Z,20.37
2018-06-30T10:05:59.019Z,20.34
2018-06-30T10:08:27.821Z,20.51
2018-06-30T10:10:56.395Z,20.60
2018-06-30T10:13:25.102Z,21.15
2018-06-30T10:15:53.804Z,21.69
2018-06-30T10:18:22.217Z,21.20
2018-06-30T10:20:51.048Z,20.70
2018-06-30T10:23:19.625Z,20.51
2018-06-30T10:25:48.196Z,20.55
2018-06-30T10:28:16.620Z,20.60
2018-06-30T10:30:45.141Z,20.51
2018-06-30T10:33:13.667Z,20.66
2018-06-30T10:35:42.285Z,20.47
2018-06-30T10:38:11.089Z,20.43
2018-06-30T10:40:39.585Z,20.35
2018-06-30T10:43:08.046Z,20.25
2018-06-30T10:45:37.786Z,20.02
2018-06-30T10:48:07.637Z,20.01
2018-06-30T10:50:35.940Z,20.23
2018-06-30T10:53:04.315Z,20.41
2018-06-30T10:55:33.161Z,20.59
2018-06-30T10:58:01.504Z,20.53
2018-06-30T11:00:30.113Z,20.80
2018-06-30T11:02:58.700Z,20.79
2018-06-30T11:05:27.692Z,20.89
2018-06-30T11:07:56.352Z,20.83
2018-06-30T11:10:25.004Z,21.34
2018-06-30T11:12:53.537Z,21.51
2018-06-30T11:15:22.280Z,21.61
2018-06-30T11:17:51.025Z,21.66
2018-06-30T11:20:19.811Z,21.55
2018-06-30T11:22:48.427Z,21.55
2018-06-30T11:25:16.889Z,21.91
2018-06-30T11:27:45.432Z,22.22
2018-06-30T11:30:19.206Z,22.56
2018-06-30T11:32:50.562Z,22.67
2018-06-30T11:35:21.487Z,22.46
2018-06-30T11:37:50.894Z,22.48
2018-06-30T11:40:19.652Z,22.58
2018-06-30T11:42:48.422Z,22.48
2018-06-30T11:45:17.456Z,22.81
2018-06-30T11:47:46.663Z,22.86
2018-06-30T11:50:15.422Z,22.28
2018-06-30T11:52:44.088Z,21.94
2018-06-30T11:55:14.566Z,21.89
2018-06-30T11:57:43.238Z,22.49
2018-06-30T12:00:11.773Z,22.91
2018-06-30T12:02:40.425Z,22.99
2018-06-30T12:05:09.211Z,23.21
2018-06-30T12:07:37.878Z,23.21
2018-06-30T12:10:06.474Z,23.16
2018-06-30T12:12:35.361Z,22.97
2018-06-30T12:15:04.611Z,23.04
2018-06-30T12:17:33.210Z,23.31
2018-06-30T12:20:01.682Z,23.22
2018-06-30T12:22:30.421Z,23.08
2018-06-30T12:24:59.145Z,23.16
2018-06-30T12:27:27.687Z,23.14
2018-06-30T12:29:56.213Z,23.34
2018-06-30T12:32:24.811Z,23.60
2018-06-30T12:34:53.678Z,23.97
2018-06-30T12:37:22.219Z,23.69
2018-06-30T12:39:51.558Z,23.76
2018-06-30T12:42:20.221Z,23.53
2018-06-30T12:44:48.900Z,23.35
2018-06-30T12:47:17.428Z,23.70
2018-06-30T12:49:45.924Z,23.95
2018-06-30T12:52:18.062Z,24.63
2018-06-30T12:54:46.832Z,24.60
2018-06-30T12:57:15.411Z,24.58
2018-06-30T12:59:44.160Z,24.83
2018-06-30T13:02:12.711Z,24.90
2018-06-30T13:04:41.226Z,25.35
2018-06-30T13:07:09.661Z,25.44
2018-06-30T13:09:38.367Z,24.73
2018-06-30T13:12:06.861Z,24.75
2018-06-30T13:14:35.543Z,24.86
2018-06-30T13:17:03.993Z,24.55
2018-06-30T13:19:32.641Z,24.50
2018-06-30T13:22:01.093Z,24.49
2018-06-30T13:24:29.737Z,24.51
2018-06-30T13:26:58.286Z,24.93
2018-06-30T13:29:26.792Z,24.83
2018-06-30T13:31:55.359Z,25.08
2018-06-30T13:34:24.099Z,25.09
2018-06-30T13:36:52.463Z,25.17
2018-06-30T13:39:21.006Z,25.10
2018-06-30T13:41:49.452Z,24.59
2018-06-30T13:44:17.987Z,24.80
2018-06-30T13:46:46.589Z,24.97
2018-06-30T13:49:15.151Z,25.09
2018-06-30T13:51:43.750Z,25.04
2018-06-30T13:54:12.250Z,24.67
2018-06-30T13:56:40.723Z,24.42
2018-06-30T13:59:09.455Z,23.92
2018-06-30T14:01:38.041Z,23.78
2018-06-30T14:04:06.522Z,23.49
2018-06-30T14:06:34.906Z,23.60
2018-06-30T14:09:06.025Z,23.83
2018-06-30T14:11:34.562Z,24.15
2018-06-30T14:14:03.527Z,23.95
2018-06-30T14:16:32.172Z,23.98
2018-06-30T14:19:00.780Z,24.45
2018-06-30T14:21:30.094Z,24.67
2018-06-30T14:23:58.878Z,24.80
2018-06-30T14:26:28.235Z,24.66
2018-06-30T14:28:58.935Z,24.11
2018-06-30T14:31:27.936Z,23.52
2018-06-30T14:33:57.680Z,23.27
2018-06-30T14:36:26.936Z,23.46
2018-06-30T14:38:55.762Z,23.76
2018-06-30T14:41:24.180Z,23.86
2018-06-30T14:44:00.424Z,23.81
2018-06-30T14:46:28.864Z,23.86
2018-06-30T14:48:57.340Z,24.13
2018-06-30T14:51:25.913Z,24.32
2018-06-30T14:53:54.334Z,24.48
2018-06-30T14:56:23.056Z,24.34
2018-06-30T14:58:51.736Z,23.90
2018-06-30T15:01:20.329Z,24.11
2018-06-30T15:03:48.789Z,24.21
2018-06-30T15:06:17.123Z,24.16
2018-06-30T15:08:45.807Z,23.79
2018-06-30T15:11:15.021Z,23.46
2018-06-30T15:13:44.279Z,23.39
2018-06-30T15:16:14.511Z,23.22
2018-06-30T15:18:44.532Z,23.02
2018-06-30T15:21:14.085Z,21.93
2018-06-30T15:23:42.721Z,21.53
2018-06-30T15:26:12.632Z,21.29
2018-06-30T15:28:41.294Z,21.02
2018-06-30T15:31:09.888Z,20.91
2018-06-30T15:33:38.670Z,20.97
2018-06-30T15:36:08.750Z,20.88
2018-06-30T15:38:38.799Z,20.64
2018-06-30T15:41:07.849Z,20.38
2018-06-30T15:43:36.520Z,20.20
2018-06-30T15:46:07.216Z,19.86
2018-06-30T15:48:36.113Z,19.78
2018-06-30T15:51:05.030Z,19.86
2018-06-30T15:53:33.639Z,19.75
2018-06-30T15:56:05.360Z,19.66
2018-06-30T15:58:33.960Z,19.73
2018-06-30T16:01:02.399Z,19.78
2018-06-30T16:03:31.043Z,19.62
2018-06-30T16:06:00.598Z,19.73
2018-06-30T16:08:29.582Z,19.67
2018-06-30T16:10:58.008Z,19.86
2018-06-30T16:13:26.885Z,19.92
2018-06-30T16:15:58.481Z,19.91
2018-06-30T16:18:27.681Z,20.03
2018-06-30T16:20:56.396Z,20.21
2018-06-30T16:23:25.132Z,20.32
2018-06-30T16:25:55.715Z,20.50
2018-06-30T16:28:24.378Z,20.57
2018-06-30T16:30:53.059Z,20.62
2018-06-30T16:33:21.610Z,20.57
2018-06-30T16:35:52.041Z,20.38
2018-06-30T16:38:20.486Z,20.24
2018-06-30T16:40:48.888Z,20.18
2018-06-30T16:43:17.451Z,20.12
2018-06-30T16:45:50.654Z,19.99
2018-06-30T16:48:19.169Z,19.87
2018-06-30T16:50:47.629Z,19.86
2018-06-30T16:53:16.018Z,19.86
2018-06-30T16:55:45.397Z,19.75
2018-06-30T16:58:13.901Z,19.61
2018-06-30T17:00:42.398Z,19.49
2018-06-30T17:03:10.913Z,19.39
2018-06-30T17:05:42.593Z,19.38
2018-06-30T17:08:11.327Z,19.28
2018-06-30T17:10:39.796Z,19.08
2018-06-30T17:13:08.427Z,18.77
2018-06-30T17:15:37.097Z,18.77
2018-06-30T17:18:05.684Z,18.82
2018-06-30T17:20:34.095Z,18.82
2018-06-30T17:23:02.733Z,18.84
2018-06-30T17:25:32.384Z,18.79
2018-06-30T17:28:01.216Z,18.93
2018-06-30T17:30:30.000Z,18.81
2018-06-30T17:32:58.936Z,18.78
2018-06-30T17:35:27.599Z,18.76
2018-06-30T17:37:56.341Z,18.69
2018-06-30T17:40:25.897Z,18.65
2018-06-30T17:42:54.476Z,18.61
2018-06-30T17:45:24.051Z,18.62
2018-06-30T17:47:52.688Z,18.50
2018-06-30T17:50:21.509Z,18.37
2018-06-30T17:52:50.229Z,18.33
2018-06-30T17:55:19.003Z,18.31
2018-06-30T17:57:47.668Z,18.22
2018-06-30T18:00:16.068Z,18.10
2018-06-30T18:02:44.601Z,18.02
2018-06-30T18:05:13.337Z,17.72
2018-06-30T18:07:42.428Z,17.45
2018-06-30T18:10:11.381Z,17.42
2018-06-30T18:12:40.030Z,17.30
2018-06-30T18:15:09.679Z,17.24
2018-06-30T18:17:38.728Z,17.12
2018-06-30T18:20:07.201Z,17.01
2018-06-30T18:22:37.499Z,16.93
2018-06-30T18:25:06.623Z,16.93
2018-06-30T18:27:36.420Z,16.75
2018-06-30T18:30:06.691Z,16.61
2018-06-30T18:32:35.090Z,16.54
2018-06-30T18:35:03.734Z,16.50
2018-06-30T18:37:32.268Z,16.49
2018-06-30T18:40:00.874Z,16.45
2018-06-30T18:42:29.506Z,16.47
2018-06-30T18:44:58.193Z,16.40
2018-06-30T18:47:26.796Z,16.24
2018-06-30T18:49:55.362Z,16.20
2018-06-30T18:52:23.896Z,16.14
2018-06-30T18:54:53.580Z,16.13
2018-06-30T18:57:22.032Z,16.08
2018-06-30T18:59:50.725Z,16.00
2018-06-30T19:02:23.518Z,16.00
2018-06-30T19:04:55.420Z,15.95
2018-06-30T19:07:24.095Z,15.90
2018-06-30T19:09:53.616Z,15.87
2018-06-30T19:12:22.226Z,15.80
2018-06-30T19:14:50.718Z,15.80
2018-06-30T19:17:19.050Z,15.74
2018-06-30T19:19:47.828Z,15.70
2018-06-30T19:22:16.562Z,15.70
2018-06-30T19:24:44.997Z,15.65
2018-06-30T19:27:22.463Z,15.58
2018-06-30T19:29:53.280Z,15.57
2018-06-30T19:32:22.229Z,15.47
2018-06-30T19:34:55.612Z,15.47
2018-06-30T19:37:24.589Z,15.47
2018-06-30T19:39:53.489Z,15.45
2018-06-30T19:42:22.198Z,15.46
2018-06-30T19:44:50.907Z,15.45
2018-06-30T19:47:19.982Z,15.41
2018-06-30T19:49:49.076Z,15.37
2018-06-30T19:52:18.514Z,15.41
2018-06-30T19:54:48.427Z,15.41
2018-06-30T19:57:18.086Z,15.39
2018-06-30T19:59:46.874Z,15.34
2018-06-30T20:02:15.643Z,15.28
2018-06-30T20:04:44.302Z,15.32
2018-06-30T20:07:13.412Z,15.29
2018-06-30T20:09:42.027Z,15.25
2018-06-30T20:12:10.526Z,15.21
2018-06-30T20:14:41.422Z,15.18
2018-06-30T20:17:10.024Z,15.20
2018-06-30T20:19:38.620Z,15.14
2018-06-30T20:22:07.295Z,15.08
2018-06-30T20:24:36.095Z,15.07
2018-06-30T20:27:04.747Z,15.10
2018-06-30T20:29:33.932Z,15.06
2018-06-30T20:32:02.548Z,14.99
2018-06-30T20:34:31.010Z,15.08
2018-06-30T20:36:59.776Z,15.10
2018-06-30T20:39:28.403Z,15.04
2018-06-30T20:41:56.964Z,15.02
2018-06-30T20:44:25.446Z,15.00
2018-06-30T20:46:53.863Z,15.03
2018-06-30T20:49:22.590Z,15.05
2018-06-30T20:51:50.905Z,15.05
2018-06-30T20:54:19.457Z,15.07
2018-06-30T20:56:47.802Z,15.03
2018-06-30T20:59:16.395Z,15.02
2018-06-30T21:01:45.342Z,14.95
2018-06-30T21:04:15.339Z,14.92
2018-06-30T21:06:43.791Z,14.89
2018-06-30T21:09:12.228Z,14.97
2018-06-30T21:11:41.491Z,14.91
2018-06-30T21:14:09.784Z,14.95
2018-06-30T21:16:38.038Z,14.95
2018-06-30T21:19:06.485Z,14.97
2018-06-30T21:21:35.688Z,15.00
2018-06-30T21:24:04.660Z,15.09
2018-06-30T21:26:33.075Z,15.17
2018-06-30T21:29:01.274Z,15.21
2018-06-30T21:31:29.558Z,15.22
2018-06-30T21:33:57.918Z,15.26
2018-06-30T21:36:27.285Z,15.24
2018-06-30T21:38:55.638Z,15.20
2018-06-30T21:41:23.799Z,15.20
2018-06-30T21:43:52.067Z,15.19
2018-06-30T21:46:22.413Z,15.17
2018-06-30T21:48:50.729Z,15.16
2018-06-30T21:51:19.021Z,15.12
2018-06-30T21:53:47.341Z,15.08
2018-06-30T21:56:15.854Z,15.07
2018-06-30T21:58:44.897Z,14.99
2018-06-30T22:01:18.623Z,14.93
2018-06-30T22:03:46.928Z,14.81
2018-06-30T22:06:16.238Z,14.72
2018-06-30T22:08:44.514Z,14.66
2018-06-30T22:11:13.701Z,14.58
2018-06-30T22:13:42.782Z,14.53
2018-06-30T22:16:11.873Z,14.50
2018-06-30T22:18:40.430Z,14.42
2018-06-30T22:21:09.107Z,14.32
2018-06-30T22:23:37.489Z,14.29
2018-06-30T22:26:08.756Z,14.24
2018-06-30T22:28:37.261Z,14.22
2018-06-30T22:31:05.857Z,14.18
2018-06-30T22:33:34.145Z,14.14
2018-06-30T22:36:04.492Z,14.13
2018-06-30T22:38:32.831Z,14.13
2018-06-30T22:41:01.007Z,14.09
2018-06-30T22:43:29.266Z,14.05
2018-06-30T22:45:57.478Z,14.01
2018-06-30T22:48:25.820Z,14.00
2018-06-30T22:50:54.224Z,13.99
2018-06-30T22:53:22.448Z,14.01
2018-06-30T22:55:52.625Z,13.99
2018-06-30T22:58:20.786Z,13.92
2018-06-30T23:00:48.940Z,13.92
2018-06-30T23:03:17.320Z,13.91
2018-06-30T23:05:52.273Z,13.86
2018-06-30T23:08:20.374Z,13.84
2018-06-30T23:10:48.485Z,13.79
2018-06-30T23:13:16.594Z,13.82
2018-06-30T23:15:44.773Z,13.90
2018-06-30T23:18:12.912Z,13.90
2018-06-30T23:20:41.030Z,13.88
2018-06-30T23:23:10.237Z,13.92
2018-06-30T23:25:39.116Z,13.94
2018-06-30T23:28:07.712Z,13.93
2018-06-30T23:30:36.072Z,13.91
2018-06-30T23:33:04.147Z,13.90
2018-06-30T23:38:06.748Z,13.98
2018-06-30T23:40:34.849Z,13.93
2018-06-30T23:43:02.901Z,13.90
2018-06-30T23:45:31.168Z,13.83
2018-06-30T23:47:59.287Z,13.89
2018-06-30T23:50:27.304Z,13.93
2018-06-30T23:52:55.428Z,13.85
2018-06-30T23:55:27.626Z,13.74
2018-06-30T23:57:55.677Z,13.71
